Terminal Aerodrome Forecast
Issued by NWS Wilmington, OH

Current Version | Previous Version | Graphics & Text | Print | Product List | Glossary On
Versions: 1 2 3 4 5 6 7 8 9 10 11 12 13 14 15 16 17 18 19 20 21 22 23
000
FTUS41 KILN 061100
TAFCVG
TAF
KCVG 061120Z 0612/0718 26003KT 5SM BR FEW005
     FM061300 24007KT P6SM FEW040 SCT250
     FM070000 18005KT P6SM SCT250
     FM071300 23011KT P6SM BKN035 OVC250=

USA.gov is the U.S. government's official web portal to all federal, state and local government web resources and services.